createdAt,value
2022-10-18T00:01:27.045Z,87.18
2022-10-18T00:03:59.054Z,86.67
2022-10-18T00:06:30.655Z,87.33
2022-10-18T00:09:04.446Z,86.83
2022-10-18T00:11:38.894Z,87.17
2022-10-18T00:14:10.965Z,86.25
2022-10-18T00:16:42.634Z,86.40
2022-10-18T00:19:14.704Z,86.95
2022-10-18T00:21:46.577Z,86.96
2022-10-18T00:24:18.713Z,86.54
2022-10-18T00:26:55.937Z,86.89
2022-10-18T00:29:28.105Z,87.22
2022-10-18T00:31:59.726Z,87.35
2022-10-18T00:34:31.787Z,87.50
2022-10-18T00:37:03.385Z,87.76
2022-10-18T00:39:35.587Z,87.75
2022-10-18T00:42:10.144Z,87.64
2022-10-18T00:45:14.495Z,87.68
2022-10-18T00:47:49.055Z,86.46
2022-10-18T00:50:23.254Z,87.22
2022-10-18T00:52:58.577Z,88.71
2022-10-18T00:55:31.862Z,89.26
2022-10-18T00:58:08.363Z,88.83
2022-10-18T01:00:42.353Z,89.38
2022-10-18T01:03:14.372Z,88.69
2022-10-18T01:05:49.722Z,89.21
2022-10-18T01:08:47.206Z,88.86
2022-10-18T01:11:36.625Z,88.52
2022-10-18T01:14:22.835Z,89.72
2022-10-18T01:17:08.087Z,89.70
2022-10-18T01:20:14.875Z,90.49
2022-10-18T01:22:51.804Z,90.73
2022-10-18T01:25:43.473Z,89.45
2022-10-18T01:28:31.787Z,90.19
2022-10-18T01:31:10.336Z,89.05
2022-10-18T01:33:46.856Z,89.69
2022-10-18T01:36:24.413Z,89.76
2022-10-18T01:39:00.525Z,90.13
2022-10-18T01:41:32.775Z,88.36
2022-10-18T01:44:09.000Z,89.17
2022-10-18T01:46:45.033Z,89.64
2022-10-18T01:49:21.635Z,90.26
2022-10-18T01:51:54.124Z,90.92
2022-10-18T01:54:34.277Z,90.79
2022-10-18T01:57:14.170Z,91.78
2022-10-18T01:59:56.646Z,91.00
2022-10-18T02:02:49.995Z,89.37
2022-10-18T02:05:27.675Z,88.80
2022-10-18T02:08:12.558Z,88.39
2022-10-18T02:10:58.925Z,89.18
2022-10-18T02:13:40.425Z,89.59
2022-10-18T02:16:16.517Z,88.22
2022-10-18T02:18:56.569Z,88.62
2022-10-18T02:21:31.085Z,88.58
2022-10-18T02:24:05.652Z,88.63
2022-10-18T02:26:38.006Z,88.57
2022-10-18T02:29:10.623Z,89.61
2022-10-18T02:31:47.102Z,89.73
2022-10-18T02:34:25.655Z,89.37
2022-10-18T02:37:01.146Z,88.77
2022-10-18T02:39:36.415Z,86.70
2022-10-18T02:42:09.894Z,87.36
2022-10-18T02:44:42.234Z,87.51
2022-10-18T02:47:15.346Z,88.57
2022-10-18T02:49:49.626Z,87.32
2022-10-18T02:52:21.631Z,89.23
2022-10-18T02:54:53.333Z,87.76
2022-10-18T02:57:25.464Z,86.47
2022-10-18T02:59:57.156Z,90.11
2022-10-18T03:02:29.583Z,90.65
2022-10-18T03:05:03.914Z,89.47
2022-10-18T03:07:35.966Z,89.81
2022-10-18T03:10:08.369Z,89.28
2022-10-18T03:12:40.570Z,89.75
2022-10-18T03:15:13.182Z,86.87
2022-10-18T03:17:45.186Z,89.18
2022-10-18T03:20:20.014Z,90.37
2022-10-18T03:22:52.087Z,91.21
2022-10-18T03:25:23.765Z,93.04
2022-10-18T03:27:55.753Z,93.83
2022-10-18T03:30:27.447Z,93.99
2022-10-18T03:32:59.565Z,94.11
2022-10-18T03:35:34.057Z,94.21
2022-10-18T03:38:06.085Z,90.50
2022-10-18T03:40:38.343Z,89.81
2022-10-18T03:43:10.263Z,89.45
2022-10-18T03:45:42.593Z,89.99
2022-10-18T03:48:14.617Z,91.14
2022-10-18T03:50:49.314Z,91.08
2022-10-18T03:53:21.496Z,92.93
2022-10-18T03:55:54.655Z,93.28
2022-10-18T03:58:27.449Z,92.64
2022-10-18T04:00:59.467Z,92.10
2022-10-18T04:03:31.518Z,91.67
2022-10-18T04:06:05.863Z,93.16
2022-10-18T04:08:37.938Z,93.30
2022-10-18T04:11:12.274Z,95.84
2022-10-18T04:13:44.275Z,94.66
2022-10-18T04:16:16.004Z,94.86
2022-10-18T04:18:48.125Z,93.54
2022-10-18T04:21:22.648Z,95.58
2022-10-18T04:23:58.682Z,93.91
2022-10-18T04:26:30.338Z,91.53
2022-10-18T04:29:02.469Z,93.25
2022-10-18T04:31:34.547Z,93.28
2022-10-18T04:34:07.343Z,93.47
2022-10-18T04:36:41.667Z,96.02
2022-10-18T04:39:13.785Z,96.57
2022-10-18T04:41:45.436Z,95.98
2022-10-18T04:44:21.243Z,94.17
2022-10-18T04:46:53.167Z,96.85
2022-10-18T04:49:25.150Z,97.88
2022-10-18T04:51:59.468Z,96.34
2022-10-18T04:54:31.505Z,97.21
2022-10-18T04:57:03.255Z,98.22
2022-10-18T04:59:35.335Z,100.00
2022-10-18T05:02:07.308Z,100.00
2022-10-18T05:04:40.184Z,100.00
2022-10-18T05:07:14.571Z,100.00
2022-10-18T05:09:46.803Z,100.00
2022-10-18T05:12:18.724Z,100.00
2022-10-18T05:14:50.933Z,100.00
2022-10-18T05:17:22.847Z,100.00
2022-10-18T05:19:55.043Z,100.00
2022-10-18T05:22:29.541Z,99.21
2022-10-18T05:25:01.861Z,96.71
2022-10-18T05:27:33.785Z,96.29
2022-10-18T05:30:07.175Z,98.59
2022-10-18T05:32:38.985Z,99.77
2022-10-18T05:35:11.825Z,100.00
2022-10-18T05:37:46.266Z,100.00
2022-10-18T05:40:18.665Z,100.00
2022-10-18T05:42:50.448Z,100.00
2022-10-18T05:45:22.812Z,100.00
2022-10-18T05:47:54.583Z,100.00
2022-10-18T05:50:26.834Z,100.00
2022-10-18T05:53:11.959Z,100.00
2022-10-18T05:55:50.668Z,100.00
2022-10-18T05:58:22.645Z,100.00
2022-10-18T06:00:54.904Z,100.00
2022-10-18T06:03:27.800Z,100.00
2022-10-18T06:06:03.409Z,100.00
2022-10-18T06:08:38.699Z,100.00
2022-10-18T06:11:11.311Z,100.00
2022-10-18T06:13:44.263Z,100.00
2022-10-18T06:16:18.034Z,100.00
2022-10-18T06:18:52.055Z,100.00
2022-10-18T06:21:24.937Z,100.00
2022-10-18T06:24:01.282Z,100.00
2022-10-18T06:26:35.254Z,100.00
2022-10-18T06:29:07.327Z,100.00
2022-10-18T06:31:39.714Z,100.00
2022-10-18T06:34:11.601Z,100.00
2022-10-18T06:36:43.795Z,100.00
2022-10-18T06:39:18.304Z,100.00
2022-10-18T06:41:50.496Z,100.00
2022-10-18T06:44:22.496Z,100.00
2022-10-18T06:46:55.041Z,100.00
2022-10-18T06:49:29.517Z,100.00
2022-10-18T06:52:03.155Z,100.00
2022-10-18T06:54:38.085Z,100.00
2022-10-18T06:57:10.678Z,100.00
2022-10-18T06:59:43.435Z,100.00
2022-10-18T07:02:19.927Z,100.00
2022-10-18T07:04:55.597Z,100.00
2022-10-18T07:07:28.236Z,100.00
2022-10-18T07:10:03.076Z,100.00
2022-10-18T07:12:36.441Z,100.00
2022-10-18T07:15:09.876Z,100.00
2022-10-18T07:17:42.557Z,100.00
2022-10-18T07:20:14.957Z,100.00
2022-10-18T07:22:47.691Z,100.00
2022-10-18T07:25:24.798Z,100.00
2022-10-18T07:27:59.916Z,100.00
2022-10-18T07:30:32.076Z,100.00
2022-10-18T07:33:04.677Z,100.00
2022-10-18T07:35:36.886Z,100.00
2022-10-18T07:38:09.557Z,100.00
2022-10-18T07:40:44.800Z,98.66
2022-10-18T07:43:17.517Z,98.73
2022-10-18T07:45:55.875Z,99.10
2022-10-18T07:48:28.639Z,97.92
2022-10-18T07:51:02.882Z,98.67
2022-10-18T07:53:35.797Z,99.78
2022-10-18T07:56:16.482Z,96.55
2022-10-18T07:58:51.522Z,98.36
2022-10-18T08:01:24.650Z,97.66
2022-10-18T08:03:57.393Z,97.12
2022-10-18T08:06:29.675Z,97.56
2022-10-18T08:09:02.314Z,99.96
2022-10-18T08:11:37.194Z,100.00
2022-10-18T08:14:09.962Z,100.00
2022-10-18T08:16:42.155Z,100.00
2022-10-18T08:19:15.172Z,100.00
2022-10-18T08:21:47.514Z,100.00
2022-10-18T08:24:30.363Z,100.00
2022-10-18T08:27:05.323Z,98.07
2022-10-18T08:29:37.924Z,99.18
2022-10-18T08:32:10.955Z,97.87
2022-10-18T08:34:43.596Z,96.72
2022-10-18T08:37:16.035Z,100.00
2022-10-18T08:39:48.878Z,99.02
2022-10-18T08:42:42.756Z,98.34
2022-10-18T08:45:30.151Z,99.75
2022-10-18T08:48:11.156Z,100.00
2022-10-18T08:50:44.756Z,100.00
2022-10-18T08:53:22.717Z,98.63
2022-10-18T08:56:01.279Z,100.00
2022-10-18T08:58:36.876Z,100.00
2022-10-18T09:01:23.195Z,100.00
2022-10-18T09:04:18.676Z,100.00
2022-10-18T09:07:02.394Z,100.00
2022-10-18T09:09:43.034Z,100.00
2022-10-18T09:12:34.517Z,100.00
2022-10-18T09:15:23.433Z,100.00
2022-10-18T09:18:11.811Z,99.71
2022-10-18T09:20:53.953Z,100.00
2022-10-18T09:23:44.555Z,100.00
2022-10-18T09:26:20.649Z,99.89
2022-10-18T09:29:07.503Z,100.00
2022-10-18T09:31:50.914Z,100.00
2022-10-18T09:34:32.356Z,100.00
2022-10-18T09:37:05.766Z,100.00
2022-10-18T09:39:42.400Z,100.00
2022-10-18T09:42:26.778Z,100.00
2022-10-18T09:45:03.962Z,100.00
2022-10-18T09:47:43.676Z,100.00
2022-10-18T09:50:25.756Z,100.00
2022-10-18T09:53:11.919Z,100.00
2022-10-18T09:55:53.233Z,100.00
2022-10-18T09:58:48.172Z,99.56
2022-10-18T10:01:27.918Z,100.00
2022-10-18T10:04:02.961Z,100.00
2022-10-18T10:06:39.038Z,100.00
2022-10-18T10:09:17.873Z,98.83
2022-10-18T10:11:52.809Z,100.00
2022-10-18T10:14:27.332Z,100.00
2022-10-18T10:17:03.637Z,100.00
2022-10-18T10:19:41.036Z,100.00
2022-10-18T10:22:15.675Z,97.79
2022-10-18T10:24:52.036Z,100.00
2022-10-18T10:27:27.998Z,100.00
2022-10-18T10:30:06.748Z,100.00
2022-10-18T10:32:50.518Z,100.00
2022-10-18T10:35:49.033Z,99.91
2022-10-18T10:38:29.885Z,100.00
2022-10-18T10:41:02.677Z,100.00
2022-10-18T10:43:39.259Z,100.00
2022-10-18T10:46:15.315Z,100.00
2022-10-18T10:49:04.455Z,100.00
2022-10-18T10:51:53.775Z,100.00
2022-10-18T10:54:39.238Z,100.00
2022-10-18T10:57:26.597Z,100.00
2022-10-18T11:00:01.493Z,100.00
2022-10-18T11:02:35.844Z,100.00
2022-10-18T11:05:25.247Z,100.00
2022-10-18T11:08:05.517Z,99.13
2022-10-18T11:10:46.481Z,100.00
2022-10-18T11:13:31.838Z,100.00
2022-10-18T11:16:31.117Z,100.00
2022-10-18T11:19:13.600Z,98.82
2022-10-18T11:21:46.718Z,98.12
2022-10-18T11:24:21.637Z,97.40
2022-10-18T11:27:00.645Z,100.00
2022-10-18T11:29:54.484Z,100.00
2022-10-18T11:32:34.652Z,100.00
2022-10-18T11:35:25.077Z,100.00
2022-10-18T11:38:16.294Z,100.00
2022-10-18T11:41:00.836Z,100.00
2022-10-18T11:44:01.086Z,99.69
2022-10-18T11:46:44.558Z,100.00
2022-10-18T11:49:41.516Z,100.00
2022-10-18T11:52:24.637Z,97.91
2022-10-18T11:55:15.714Z,94.71
2022-10-18T11:57:58.139Z,100.00
2022-10-18T12:00:47.356Z,100.00
2022-10-18T12:03:25.917Z,99.64
2022-10-18T12:06:01.885Z,99.65
2022-10-18T12:08:39.524Z,100.00
2022-10-18T12:11:18.209Z,99.87
2022-10-18T12:13:58.035Z,100.00
2022-10-18T12:17:06.782Z,100.00
2022-10-18T12:19:33.318Z,100.00
2022-10-18T12:22:17.956Z,100.00
2022-10-18T12:24:50.519Z,100.00
2022-10-18T12:27:35.556Z,100.00
2022-10-18T12:30:23.755Z,100.00
2022-10-18T12:33:23.245Z,99.75
2022-10-18T12:36:04.234Z,99.03
2022-10-18T12:38:40.916Z,99.21
2022-10-18T12:41:19.876Z,99.47
2022-10-18T12:43:58.078Z,100.00
2022-10-18T12:46:47.559Z,99.39
2022-10-18T12:49:25.757Z,100.00
2022-10-18T12:51:59.879Z,100.00
2022-10-18T12:54:34.516Z,96.94
2022-10-18T12:57:08.357Z,99.00
2022-10-18T12:59:44.676Z,100.00
2022-10-18T13:02:36.924Z,100.00
2022-10-18T13:05:42.026Z,98.07
2022-10-18T13:08:46.237Z,97.63
2022-10-18T13:11:36.598Z,100.00
2022-10-18T13:14:53.629Z,100.00
2022-10-18T13:17:48.359Z,100.00
2022-10-18T13:20:29.197Z,100.00
2022-10-18T13:26:16.919Z,100.00
2022-10-18T13:28:58.943Z,100.00
2022-10-18T13:31:39.146Z,98.20
2022-10-18T13:34:29.809Z,100.00
2022-10-18T13:37:03.929Z,97.82
2022-10-18T13:39:37.071Z,99.18
2022-10-18T13:42:31.579Z,99.08
2022-10-18T13:45:34.083Z,100.00
2022-10-18T13:48:35.959Z,100.00
2022-10-18T13:51:34.561Z,100.00
2022-10-18T13:54:19.952Z,100.00
2022-10-18T13:57:08.795Z,95.40
2022-10-18T14:00:19.293Z,93.84
2022-10-18T14:03:44.419Z,94.31
2022-10-18T14:06:22.831Z,97.36
2022-10-18T14:09:09.561Z,96.19
2022-10-18T14:11:54.347Z,95.44
2022-10-18T14:14:35.623Z,94.41
2022-10-18T14:17:18.044Z,93.90
2022-10-18T14:19:55.910Z,96.82
2022-10-18T14:22:37.508Z,92.27
2022-10-18T14:25:24.297Z,93.29
2022-10-18T14:28:11.421Z,89.55
2022-10-18T14:30:59.386Z,92.58
2022-10-18T14:33:36.112Z,90.10
2022-10-18T14:36:15.378Z,90.91
2022-10-18T14:38:56.960Z,91.43
2022-10-18T14:41:31.388Z,91.82
2022-10-18T14:44:21.898Z,91.48
2022-10-18T14:46:56.161Z,87.15
2022-10-18T14:49:28.545Z,88.78
2022-10-18T14:52:03.485Z,90.65
2022-10-18T14:54:41.416Z,89.69
2022-10-18T14:57:25.048Z,91.43
2022-10-18T14:59:59.845Z,88.72
2022-10-18T15:02:35.549Z,91.11
2022-10-18T15:05:13.726Z,89.91
2022-10-18T15:07:47.412Z,84.74
2022-10-18T15:10:25.249Z,87.43
2022-10-18T15:13:09.875Z,88.57
2022-10-18T15:15:43.583Z,85.49
2022-10-18T15:18:24.227Z,85.76
2022-10-18T15:21:12.612Z,89.48
2022-10-18T15:23:45.166Z,89.88
2022-10-18T15:26:26.964Z,88.81
2022-10-18T15:29:04.322Z,86.79
2022-10-18T15:31:46.384Z,87.18
2022-10-18T15:34:23.892Z,87.63
2022-10-18T15:36:58.164Z,88.61
2022-10-18T15:39:32.605Z,88.79
2022-10-18T15:42:07.744Z,88.10
2022-10-18T15:44:51.900Z,86.87
2022-10-18T15:47:27.663Z,85.77
2022-10-18T15:50:01.621Z,87.68
2022-10-18T15:52:40.186Z,89.36
2022-10-18T15:55:52.582Z,90.10
2022-10-18T15:58:29.822Z,90.35
2022-10-18T16:01:05.033Z,90.29
2022-10-18T16:03:39.751Z,90.93
2022-10-18T16:06:16.053Z,91.26
2022-10-18T16:08:52.008Z,92.58
2022-10-18T16:11:27.511Z,93.46
2022-10-18T16:14:02.356Z,93.76
2022-10-18T16:16:35.231Z,94.87
2022-10-18T16:19:07.596Z,94.96
2022-10-18T16:21:41.672Z,94.64
2022-10-18T16:24:14.032Z,96.58
2022-10-18T16:26:46.754Z,97.03
2022-10-18T16:29:26.473Z,97.77
2022-10-18T16:32:00.198Z,99.13
2022-10-18T16:34:32.592Z,98.86
2022-10-18T16:37:05.266Z,99.81
2022-10-18T16:39:37.482Z,99.04
2022-10-18T16:42:10.346Z,99.46
2022-10-18T16:44:45.706Z,98.35
2022-10-18T16:47:18.628Z,98.85
2022-10-18T16:49:50.786Z,98.92
2022-10-18T16:52:23.546Z,97.32
2022-10-18T16:54:55.705Z,94.42
2022-10-18T16:57:28.426Z,95.47
2022-10-18T17:00:03.189Z,96.89
2022-10-18T17:02:35.906Z,97.37
2022-10-18T17:05:08.828Z,97.77
2022-10-18T17:07:41.584Z,99.05
2022-10-18T17:10:16.108Z,98.90
2022-10-18T17:12:49.154Z,99.85
2022-10-18T17:15:24.104Z,100.00
2022-10-18T17:17:56.788Z,100.00
2022-10-18T17:20:30.106Z,100.00
2022-10-18T17:23:02.865Z,100.00
2022-10-18T17:25:42.186Z,100.00
2022-10-18T17:28:25.238Z,100.00
2022-10-18T17:31:00.230Z,100.00
2022-10-18T17:33:32.984Z,100.00
2022-10-18T17:36:05.471Z,100.00
2022-10-18T17:38:38.427Z,100.00
2022-10-18T17:41:11.802Z,100.00
2022-10-18T17:43:44.882Z,100.00
2022-10-18T17:46:19.950Z,100.00
2022-10-18T17:48:52.683Z,100.00
2022-10-18T17:51:24.914Z,100.00
2022-10-18T17:53:57.714Z,100.00
2022-10-18T17:56:33.626Z,100.00
2022-10-18T17:59:06.627Z,100.00
2022-10-18T18:01:41.786Z,100.00
2022-10-18T18:04:15.347Z,100.00
2022-10-18T18:06:49.272Z,100.00
2022-10-18T18:09:22.626Z,100.00
2022-10-18T18:11:55.587Z,100.00
2022-10-18T18:14:28.908Z,100.00
2022-10-18T18:17:04.506Z,100.00
2022-10-18T18:19:37.128Z,100.00
2022-10-18T18:22:09.388Z,99.46
2022-10-18T18:24:42.157Z,99.74
2022-10-18T18:27:14.306Z,100.00
2022-10-18T18:29:46.946Z,100.00
2022-10-18T18:32:21.748Z,100.00
2022-10-18T18:34:54.706Z,100.00
2022-10-18T18:37:26.906Z,100.00
2022-10-18T18:39:59.664Z,100.00
2022-10-18T18:42:32.092Z,98.47
2022-10-18T18:45:05.345Z,97.68
2022-10-18T18:47:40.064Z,97.10
2022-10-18T18:50:12.985Z,97.14
2022-10-18T18:52:45.233Z,96.52
2022-10-18T18:55:18.266Z,95.01
2022-10-18T18:57:50.505Z,91.93
2022-10-18T19:00:23.395Z,91.38
2022-10-18T19:02:58.145Z,91.77
2022-10-18T19:05:30.906Z,94.39
2022-10-18T19:08:03.106Z,94.99
2022-10-18T19:10:35.906Z,95.47
2022-10-18T19:13:08.106Z,93.17
2022-10-18T19:15:40.630Z,90.16
2022-10-18T19:18:15.775Z,92.33
2022-10-18T19:20:50.026Z,91.88
2022-10-18T19:23:22.360Z,89.12
2022-10-18T19:25:54.945Z,91.67
2022-10-18T19:28:27.103Z,91.41
2022-10-18T19:30:59.867Z,91.30
2022-10-18T19:33:47.896Z,91.44
2022-10-18T19:36:21.225Z,90.26
2022-10-18T19:38:53.306Z,89.96
2022-10-18T19:41:26.566Z,88.28
2022-10-18T19:43:59.264Z,88.31
2022-10-18T19:46:31.946Z,88.94
2022-10-18T19:49:06.787Z,88.95
2022-10-18T19:51:40.147Z,88.75
2022-10-18T19:54:14.069Z,87.63
2022-10-18T19:56:47.585Z,85.99
2022-10-18T19:59:21.466Z,86.04
2022-10-18T20:01:54.145Z,86.31
2022-10-18T20:04:34.392Z,86.27
2022-10-18T20:07:06.992Z,86.75
2022-10-18T20:09:40.026Z,85.67
2022-10-18T20:12:12.625Z,86.81
2022-10-18T20:14:44.994Z,84.14
2022-10-18T20:17:17.827Z,85.16
2022-10-18T20:19:54.027Z,86.48
2022-10-18T20:22:26.669Z,86.91
2022-10-18T20:24:59.064Z,85.95
2022-10-18T20:27:34.688Z,85.13
2022-10-18T20:30:10.511Z,85.73
2022-10-18T20:32:44.715Z,86.43
2022-10-18T20:35:19.867Z,86.64
2022-10-18T20:37:52.674Z,86.87
2022-10-18T20:40:24.985Z,87.34
2022-10-18T20:43:02.834Z,85.60
2022-10-18T20:45:36.186Z,86.09
2022-10-18T20:48:09.025Z,86.19
2022-10-18T20:50:46.786Z,86.87
2022-10-18T20:53:18.668Z,87.48
2022-10-18T20:55:51.379Z,87.38
2022-10-18T20:58:26.106Z,86.51
2022-10-18T21:01:00.989Z,85.82
2022-10-18T21:03:36.059Z,87.00
2022-10-18T21:06:28.618Z,85.56
2022-10-18T21:09:02.671Z,85.47
2022-10-18T21:11:37.396Z,85.04
2022-10-18T21:14:10.154Z,85.16
2022-10-18T21:16:41.258Z,86.13
2022-10-18T21:19:15.162Z,85.56
2022-10-18T21:21:50.932Z,85.39
2022-10-18T21:24:24.094Z,86.17
2022-10-18T21:26:55.035Z,86.06
2022-10-18T21:29:27.511Z,86.14
2022-10-18T21:32:01.094Z,86.85
2022-10-18T21:34:32.382Z,86.30
2022-10-18T21:37:05.752Z,83.50
2022-10-18T21:39:36.928Z,85.33
2022-10-18T21:42:08.973Z,85.80
2022-10-18T21:44:40.349Z,85.40
2022-10-18T21:47:11.693Z,84.70
2022-10-18T21:49:42.914Z,86.29
2022-10-18T21:52:18.707Z,86.33
2022-10-18T21:54:56.604Z,87.08
2022-10-18T21:57:27.559Z,86.24
2022-10-18T21:59:58.622Z,84.87
2022-10-18T22:02:29.546Z,87.09
2022-10-18T22:05:07.021Z,87.71
2022-10-18T22:07:43.001Z,86.11
2022-10-18T22:10:14.795Z,86.60
2022-10-18T22:12:45.586Z,86.70
2022-10-18T22:15:16.716Z,86.28
2022-10-18T22:17:47.590Z,84.82
2022-10-18T22:20:22.453Z,84.93
2022-10-18T22:22:59.594Z,84.25
2022-10-18T22:25:30.889Z,84.29
2022-10-18T22:28:01.615Z,82.00
2022-10-18T22:30:33.888Z,83.41
2022-10-18T22:33:04.645Z,82.27
2022-10-18T22:35:36.150Z,81.86
2022-10-18T22:38:09.638Z,81.43
2022-10-18T22:40:40.815Z,80.86
2022-10-18T22:43:11.698Z,82.67
2022-10-18T22:45:43.203Z,78.97
2022-10-18T22:48:26.314Z,81.12
2022-10-18T22:50:59.197Z,80.61
2022-10-18T22:53:33.977Z,82.47
2022-10-18T22:56:07.310Z,79.89
2022-10-18T22:58:38.765Z,79.84
2022-10-18T23:01:12.378Z,81.04
2022-10-18T23:03:44.246Z,81.02
2022-10-18T23:06:23.337Z,82.36
2022-10-18T23:08:58.716Z,81.78
2022-10-18T23:11:32.096Z,80.67
2022-10-18T23:14:04.218Z,81.42
2022-10-18T23:16:35.937Z,79.76
2022-10-18T23:19:07.952Z,79.77
2022-10-18T23:21:39.905Z,80.20
2022-10-18T23:24:14.118Z,81.99
2022-10-18T23:26:46.037Z,81.74
2022-10-18T23:29:17.787Z,79.44
2022-10-18T23:31:49.778Z,81.52
2022-10-18T23:34:21.530Z,79.26
2022-10-18T23:36:53.558Z,82.92
2022-10-18T23:39:27.842Z,81.79
2022-10-18T23:41:59.846Z,78.71
2022-10-18T23:44:31.507Z,79.32
2022-10-18T23:47:03.487Z,80.37
2022-10-18T23:49:35.456Z,78.05
2022-10-18T23:52:07.897Z,81.80
2022-10-18T23:54:42.225Z,80.52
2022-10-18T23:57:14.246Z,77.49
2022-10-18T23:59:45.919Z,77.90
